Time;durP1;ratioP1;P1;durP2;ratioP2;P2;SDS_P1;SDS_P2;PMS_P1;PMS_P2;Temp;Humidity;BMP_temperature;BMP_pressure;BME280_temperature;BME280_humidity;BME280_pressure;Samples;Min_cycle;Max_cycle;Signal;HPM_P1;HPM_P2
2021/12/17 00:00:56;;;;;;;164.57;24.23;;;7.80;99.90;;;;;;5074024;28;20126;-44
2021/12/17 00:03:32;;;;;;;139.13;24.25;;;7.80;99.90;;;;;;5071067;28;20493;-43
2021/12/17 00:08:43;;;;;;;107.78;23.42;;;7.80;99.90;;;;;;5076980;28;20044;-44
2021/12/17 00:11:10;;;;;;;72.15;19.33;;;7.90;99.90;;;;;;5071119;28;20139;-43
2021/12/17 00:13:37;;;;;;;112.80;22.15;;;7.70;99.90;;;;;;5060600;28;20049;-42
2021/12/17 00:16:13;;;;;;;103.38;23.48;;;7.80;99.90;;;;;;5079741;28;20150;-43
2021/12/17 00:18:44;;;;;;;119.70;23.05;;;7.80;99.90;;;;;;5078532;28;20134;-48
2021/12/17 00:48:43;;;;;;;96.70;21.52;;;7.70;99.90;;;;;;5035562;28;20052;-44
2021/12/17 00:51:56;;;;;;;59.03;19.15;;;7.60;99.90;;;;;;5024997;28;20057;-42
2021/12/17 00:54:30;;;;;;;63.03;18.25;;;7.70;99.90;;;;;;5040825;28;20049;-42
2021/12/17 00:56:58;;;;;;;77.82;19.45;;;7.70;99.90;;;;;;5033424;28;20160;-42
2021/12/17 00:59:24;;;;;;;88.82;21.52;;;7.70;99.90;;;;;;5022782;28;20075;-46
2021/12/17 01:01:52;;;;;;;74.80;19.35;;;7.80;99.90;;;;;;5042249;28;22141;-42
2021/12/17 01:04:18;;;;;;;76.07;20.05;;;7.60;99.90;;;;;;5023162;28;20038;-42
2021/12/17 01:06:44;;;;;;;88.57;20.48;;;;;;;;;;5032075;28;20421;-43
2021/12/17 01:09:14;;;;;;;118.32;21.65;;;7.60;99.90;;;;;;5031270;28;20156;-42
2021/12/17 01:11:40;;;;;;;67.13;18.23;;;7.70;99.90;;;;;;5041228;28;20087;-43
2021/12/17 01:14:08;;;;;;;95.30;21.08;;;7.70;99.90;;;;;;5059243;28;20040;-43
2021/12/17 01:16:34;;;;;;;84.72;20.90;;;7.60;99.90;;;;;;5076927;28;20037;-42
2021/12/17 01:19:05;;;;;;;76.88;18.83;;;7.70;99.90;;;;;;5073318;28;20047;-43
2021/12/17 01:21:43;;;;;;;86.45;20.38;;;7.70;99.90;;;;;;5072440;28;20040;-43
2021/12/17 01:24:31;;;;;;;103.68;22.45;;;7.80;99.90;;;;;;5064279;28;20045;-47
2021/12/17 01:35:21;;;;;;;96.75;21.70;;;7.70;99.90;;;;;;5075352;28;20039;-42
2021/12/17 01:43:04;;;;;;;85.95;21.42;;;7.60;99.90;;;;;;5082132;28;20126;-43
2021/12/17 01:45:35;;;;;;;58.00;17.40;;;7.70;99.90;;;;;;5061334;28;20101;-42
2021/12/17 01:48:06;;;;;;;95.17;20.73;;;7.70;99.90;;;;;;5068630;28;20053;-44
2021/12/17 01:56:31;;;;;;;172.82;25.23;;;7.60;99.90;;;;;;5083464;28;20043;-42
2021/12/17 02:01:43;;;;;;;106.25;21.77;;;7.80;99.90;;;;;;5060795;28;20461;-43
2021/12/17 02:04:12;;;;;;;53.60;17.77;;;7.80;99.90;;;;;;5062814;28;20036;-44
2021/12/17 02:06:39;;;;;;;96.80;21.05;;;7.70;99.90;;;;;;5076207;28;20051;-44
2021/12/17 02:09:38;;;;;;;58.22;18.77;;;7.70;99.90;;;;;;5080813;28;20055;-43
2021/12/17 02:31:40;;;;;;;178.10;24.20;;;7.50;99.90;;;;;;4963381;28;20066;-43
2021/12/17 02:34:24;;;;;;;133.48;22.23;;;8.30;99.90;;;;;;4975674;28;20077;-42
2021/12/17 02:36:53;;;;;;;161.55;23.35;;;7.70;99.90;;;;;;4974441;28;20085;-44
2021/12/17 02:47:25;;;;;;;80.35;18.77;;;7.60;99.90;;;;;;4963536;28;20118;-43
2021/12/17 02:49:50;;;;;;;158.93;24.58;;;7.70;99.90;;;;;;4981883;28;20519;-43
2021/12/17 02:52:16;;;;;;;203.23;26.95;;;7.70;99.90;;;;;;4983253;28;20131;-56
2021/12/17 02:54:43;;;;;;;275.35;27.92;;;;;;;;;;4993200;28;20140;-56
2021/12/17 02:57:11;;;;;;;67.13;20.63;;;7.70;99.90;;;;;;4993545;28;20501;-56
2021/12/17 02:59:38;;;;;;;79.70;19.52;;;7.70;99.90;;;;;;4996028;28;20396;-54
2021/12/17 03:02:07;;;;;;;147.40;22.75;;;7.80;99.90;;;;;;5066394;28;20511;-55
2021/12/17 03:04:37;;;;;;;269.23;28.80;;;7.60;99.90;;;;;;5067657;28;20500;-55
2021/12/17 03:07:03;;;;;;;192.27;24.67;;;7.60;99.90;;;;;;5073866;28;20040;-56
2021/12/17 03:09:49;;;;;;;110.00;21.85;;;7.60;99.90;;;;;;5079210;28;20515;-55
2021/12/17 03:12:20;;;;;;;181.88;23.73;;;7.70;99.90;;;;;;5078825;28;20044;-55
2021/12/17 03:14:55;;;;;;;136.33;22.97;;;7.60;99.90;;;;;;5067333;28;20044;-55
2021/12/17 03:25:37;;;;;;;398.58;32.28;;;7.70;99.90;;;;;;5079994;28;20389;-53
2021/12/17 03:28:03;;;;;;;313.65;30.33;;;7.60;99.90;;;;;;5069379;28;20044;-55
2021/12/17 03:30:29;;;;;;;259.50;27.58;;;7.70;99.90;;;;;;5067915;28;20032;-56
2021/12/17 03:32:55;;;;;;;388.05;30.50;;;7.70;99.90;;;;;;5077706;28;20060;-55
2021/12/17 03:35:21;;;;;;;160.45;23.30;;;7.60;99.90;;;;;;5076707;28;20039;-56
2021/12/17 03:37:47;;;;;;;117.68;22.35;;;7.70;99.90;;;;;;5080852;28;20039;-55
2021/12/17 03:40:16;;;;;;;174.88;23.65;;;7.60;99.90;;;;;;5072552;28;20047;-56
2021/12/17 03:42:47;;;;;;;70.82;20.85;;;7.70;99.90;;;;;;5069852;28;20064;-54
2021/12/17 03:45:17;;;;;;;112.55;21.80;;;7.70;99.90;;;;;;5074458;28;20047;-55
2021/12/17 03:47:43;;;;;;;139.75;24.15;;;7.60;99.90;;;;;;5077581;28;20057;-53
2021/12/17 03:50:09;;;;;;;64.18;19.23;;;7.80;99.90;;;;;;5076019;28;20048;-54
2021/12/17 03:52:35;;;;;;;69.95;20.08;;;7.60;99.90;;;;;;5067254;28;20524;-55
2021/12/17 03:55:00;;;;;;;99.10;21.10;;;7.60;99.90;;;;;;5067263;28;20580;-51
2021/12/17 03:57:26;;;;;;;141.13;23.08;;;7.70;99.90;;;;;;5070156;28;20637;-56
2021/12/17 03:59:52;;;;;;;71.80;19.80;;;7.80;99.90;;;;;;5079478;28;20390;-54
2021/12/17 04:02:18;;;;;;;154.88;24.88;;;7.60;99.90;;;;;;5081451;28;20036;-53
2021/12/17 04:04:44;;;;;;;100.55;21.80;;;7.70;99.90;;;;;;5082180;28;20036;-52
2021/12/17 04:07:12;;;;;;;68.82;19.63;;;7.60;99.90;;;;;;5086757;28;20050;-52
2021/12/17 04:09:38;;;;;;;170.57;25.23;;;7.60;99.90;;;;;;5074031;28;20170;-54
2021/12/17 04:12:08;;;;;;;377.88;31.55;;;8.50;99.90;;;;;;5080799;28;20942;-56
2021/12/17 04:14:45;;;;;;;187.32;25.15;;;7.60;99.90;;;;;;5082235;28;20041;-55
2021/12/17 04:17:15;;;;;;;127.32;21.50;;;7.60;99.90;;;;;;5081482;28;20117;-56
2021/12/17 04:19:44;;;;;;;85.15;21.33;;;7.50;99.90;;;;;;5067940;28;20045;-55
2021/12/17 04:22:09;;;;;;;88.50;20.80;;;7.50;99.90;;;;;;5083754;28;20055;-55
2021/12/17 04:24:35;;;;;;;202.05;24.67;;;7.50;99.90;;;;;;5081593;28;20036;-55
2021/12/17 04:27:01;;;;;;;103.00;20.65;;;7.70;99.90;;;;;;5075331;28;20089;-52
2021/12/17 04:29:26;;;;;;;68.38;19.08;;;7.50;99.90;;;;;;5074096;28;20093;-54
2021/12/17 04:31:56;;;;;;;105.20;21.20;;;7.50;99.90;;;;;;5093485;28;20159;-56
2021/12/17 04:34:24;;;;;;;93.85;20.45;;;7.60;99.90;;;;;;5079334;28;20040;-57
2021/12/17 04:36:53;;;;;;;52.42;18.13;;;7.50;99.90;;;;;;5089117;28;20044;-53
2021/12/17 04:39:21;;;;;;;53.72;19.65;;;7.50;99.90;;;;;;5081152;28;20107;-57
2021/12/17 04:42:04;;;;;;;53.03;17.77;;;7.50;99.90;;;;;;5082914;28;20039;-55
2021/12/17 04:44:34;;;;;;;78.63;20.92;;;7.70;99.90;;;;;;5085104;28;20036;-52
2021/12/17 04:57:16;;;;;;;54.42;19.10;;;7.50;99.90;;;;;;5088006;28;20044;-56
2021/12/17 04:58:02;;;;;;;67.40;17.75;;;7.50;99.90;;;;;;5070071;28;20051;-52
2021/12/17 05:00:29;;;;;;;38.30;15.65;;;7.50;99.90;;;;;;5087124;28;20110;-56
2021/12/17 05:02:58;;;;;;;37.92;15.85;;;7.60;99.90;;;;;;5067478;28;21079;-52
2021/12/17 05:05:29;;;;;;;38.88;15.50;;;7.50;99.90;;;;;;5064317;28;20049;-57
2021/12/17 05:08:01;;;;;;;49.85;17.92;;;7.50;99.90;;;;;;5067766;28;20779;-55
2021/12/17 05:18:39;;;;;;;48.83;17.02;;;7.60;99.90;;;;;;5073295;28;20138;-53
2021/12/17 05:21:08;;;;;;;70.38;18.67;;;7.60;99.90;;;;;;5069571;28;20040;-56
2021/12/17 05:23:39;;;;;;;55.35;16.90;;;7.50;99.90;;;;;;5074146;28;20611;-54
2021/12/17 05:26:07;;;;;;;42.58;15.27;;;7.60;99.90;;;;;;5080162;28;20761;-54
2021/12/17 05:28:34;;;;;;;46.03;15.45;;;7.50;99.90;;;;;;5065040;28;20036;-56
2021/12/17 05:31:00;;;;;;;43.58;15.18;;;7.40;99.90;;;;;;5076741;28;20058;-51
2021/12/17 05:33:26;;;;;;;40.88;15.55;;;7.40;99.90;;;;;;5064866;28;20068;-55
2021/12/17 05:35:53;;;;;;;38.20;13.75;;;7.40;99.90;;;;;;5079382;28;20128;-55
2021/12/17 05:38:21;;;;;;;42.20;14.57;;;7.60;99.90;;;;;;5070802;28;20090;-57
2021/12/17 05:40:47;;;;;;;42.85;14.63;;;7.40;99.90;;;;;;5071725;28;20378;-54
2021/12/17 05:43:16;;;;;;;40.58;14.52;;;7.60;99.90;;;;;;5074817;28;20064;-52
2021/12/17 05:48:20;;;;;;;61.72;15.80;;;7.50;99.90;;;;;;5062946;28;20048;-56
2021/12/17 05:50:48;;;;;;;33.75;13.35;;;7.70;99.90;;;;;;5079939;28;20028;-55
2021/12/17 05:53:14;;;;;;;50.55;15.55;;;7.50;99.90;;;;;;5071212;28;20080;-58
2021/12/17 05:55:40;;;;;;;44.78;14.60;;;7.60;99.90;;;;;;5074504;28;20115;-54
2021/12/17 05:58:07;;;;;;;46.67;15.10;;;7.60;99.90;;;;;;5074351;28;20051;-54
2021/12/17 06:00:34;;;;;;;70.47;17.50;;;7.60;99.90;;;;;;5074111;28;20064;-54
2021/12/17 06:03:02;;;;;;;60.25;15.80;;;7.60;99.90;;;;;;5070551;28;20040;-54
2021/12/17 06:05:28;;;;;;;60.60;16.40;;;7.60;99.90;;;;;;5077315;28;20412;-54
2021/12/17 06:07:55;;;;;;;57.20;15.23;;;7.50;99.90;;;;;;5079250;28;20657;-54
2021/12/17 06:10:23;;;;;;;43.33;15.18;;;7.70;99.90;;;;;;5073753;28;20523;-56
2021/12/17 06:12:49;;;;;;;47.83;15.00;;;7.50;99.90;;;;;;5072037;28;20089;-55
2021/12/17 06:15:17;;;;;;;57.17;15.27;;;7.50;99.90;;;;;;5081972;28;20039;-56
2021/12/17 06:17:43;;;;;;;51.90;15.35;;;7.60;99.90;;;;;;5072814;28;20063;-56
2021/12/17 06:20:11;;;;;;;42.28;14.88;;;7.50;99.90;;;;;;5077000;28;20036;-52
2021/12/17 06:22:37;;;;;;;36.03;12.40;;;7.50;99.90;;;;;;5078532;28;20389;-55
2021/12/17 06:25:07;;;;;;;39.25;13.18;;;7.60;99.90;;;;;;5074130;28;20064;-56
2021/12/17 06:27:33;;;;;;;41.10;14.27;;;7.60;99.90;;;;;;5061116;28;20115;-56
2021/12/17 06:30:02;;;;;;;40.25;12.57;;;7.60;99.90;;;;;;5076268;28;20147;-51
2021/12/17 06:32:28;;;;;;;51.90;14.80;;;7.50;99.90;;;;;;5063912;28;20044;-56
2021/12/17 06:34:53;;;;;;;32.45;12.35;;;7.60;99.90;;;;;;5074352;28;20102;-55
2021/12/17 06:37:20;;;;;;;31.42;11.75;;;7.60;99.90;;;;;;5062747;28;20528;-55
2021/12/17 06:39:47;;;;;;;33.65;11.63;;;7.50;99.90;;;;;;5073188;28;20036;-56
2021/12/17 06:42:14;;;;;;;39.92;13.32;;;7.50;99.90;;;;;;5061904;28;20473;-55
2021/12/17 06:44:42;;;;;;;26.27;10.63;;;7.50;99.90;;;;;;5065482;28;20040;-56
2021/12/17 06:55:19;;;;;;;35.50;12.55;;;7.50;99.90;;;;;;5068682;28;20048;-56
2021/12/17 07:33:10;;;;;;;34.67;13.57;;;7.50;99.90;;;;;;5039287;28;20076;-57
2021/12/17 07:36:06;;;;;;;40.60;14.10;;;7.40;99.90;;;;;;5037910;28;20528;-57
2021/12/17 07:41:02;;;;;;;48.67;14.63;;;7.50;99.90;;;;;;5034420;28;20123;-56
2021/12/17 07:43:36;;;;;;;31.30;12.45;;;7.40;99.90;;;;;;5029435;28;20595;-56
2021/12/17 07:46:08;;;;;;;46.53;14.85;;;7.50;99.90;;;;;;5029249;28;20036;-56
2021/12/17 07:48:37;;;;;;;59.22;16.48;;;7.50;99.90;;;;;;5026825;28;20053;-56
2021/12/17 07:51:06;;;;;;;52.47;19.80;;;7.50;99.90;;;;;;5062187;28;20048;-56
2021/12/17 07:53:32;;;;;;;46.20;16.88;;;7.50;99.90;;;;;;5078811;28;20559;-55
2021/12/17 07:56:00;;;;;;;41.95;14.98;;;7.50;99.90;;;;;;5066717;28;20040;-56
2021/12/17 07:58:27;;;;;;;53.33;15.20;;;7.40;99.90;;;;;;5071893;28;20044;-56
2021/12/17 08:00:53;;;;;;;38.85;14.23;;;7.70;99.90;;;;;;5068779;28;20037;-56
2021/12/17 08:03:22;;;;;;;57.83;18.10;;;7.60;99.90;;;;;;5062735;28;20043;-56
2021/12/17 08:05:48;;;;;;;41.10;15.80;;;7.60;99.90;;;;;;5076160;28;20098;-56
2021/12/17 08:08:14;;;;;;;48.85;15.63;;;7.50;99.90;;;;;;5061181;28;20032;-56
2021/12/17 08:10:47;;;;;;;40.50;14.30;;;7.60;99.90;;;;;;5067425;28;20032;-54
2021/12/17 08:13:19;;;;;;;36.35;13.60;;;;;;;;;;5066454;28;20044;-56
2021/12/17 08:15:57;;;;;;;58.33;15.52;;;7.60;99.90;;;;;;5069835;28;20658;-57
2021/12/17 08:26:27;;;;;;;36.15;13.98;;;7.60;99.90;;;;;;5072672;28;20043;-56
2021/12/17 08:31:26;;;;;;;48.05;15.70;;;7.70;99.90;;;;;;5072361;28;20040;-56
2021/12/17 08:33:51;;;;;;;42.10;15.35;;;7.60;99.90;;;;;;5065275;28;20119;-56
2021/12/17 08:36:18;;;;;;;36.75;13.95;;;7.80;99.90;;;;;;5077131;28;20115;-56
2021/12/17 08:38:46;;;;;;;42.45;15.68;;;7.70;99.90;;;;;;5065273;28;20037;-57
2021/12/17 08:41:13;;;;;;;43.65;15.32;;;7.60;99.90;;;;;;5074358;28;20043;-56
2021/12/17 08:43:39;;;;;;;32.13;12.85;;;7.80;99.90;;;;;;5064721;28;20117;-56
2021/12/17 08:46:05;;;;;;;29.90;12.73;;;7.80;99.90;;;;;;5077398;28;20035;-56
2021/12/17 08:48:31;;;;;;;44.08;15.98;;;7.90;99.90;;;;;;5077332;28;20037;-57
2021/12/17 08:50:57;;;;;;;35.45;14.45;;;7.70;99.90;;;;;;5064844;28;20078;-57
2021/12/17 08:53:23;;;;;;;38.92;14.50;;;;;;;;;;5064485;28;20429;-56
2021/12/17 08:55:51;;;;;;;38.28;15.30;;;7.70;99.90;;;;;;5076210;28;20484;-57
2021/12/17 08:58:16;;;;;;;39.22;15.98;;;7.90;99.90;;;;;;5075216;28;20508;-56
2021/12/17 09:00:43;;;;;;;35.70;13.90;;;7.90;99.90;;;;;;5080578;28;20039;-56
2021/12/17 09:03:11;;;;;;;35.25;14.27;;;7.70;99.90;;;;;;5082878;28;20040;-56
2021/12/17 09:05:40;;;;;;;35.83;14.48;;;7.80;99.90;;;;;;5067190;28;20631;-57
2021/12/17 09:08:07;;;;;;;35.53;15.40;;;7.90;99.90;;;;;;5074686;28;20047;-57
2021/12/17 09:10:33;;;;;;;34.58;14.45;;;7.90;99.90;;;;;;5083616;28;20085;-57
2021/12/17 09:13:01;;;;;;;33.60;13.32;;;8.00;99.90;;;;;;5082958;28;20128;-57
2021/12/17 09:15:27;;;;;;;32.25;13.68;;;9.10;99.90;;;;;;5075063;28;20040;-57
2021/12/17 09:17:53;;;;;;;36.00;15.13;;;8.00;99.90;;;;;;5079437;28;20078;-57
2021/12/17 09:20:19;;;;;;;39.30;16.65;;;7.80;99.90;;;;;;5084921;28;20043;-56
2021/12/17 09:22:45;;;;;;;31.42;14.27;;;8.10;99.90;;;;;;5066603;28;20082;-58
2021/12/17 09:25:11;;;;;;;40.00;15.13;;;8.00;99.90;;;;;;5076208;28;20103;-57
2021/12/17 09:27:38;;;;;;;31.48;14.52;;;8.10;99.90;;;;;;5076803;28;20052;-56
2021/12/17 09:30:06;;;;;;;36.75;14.68;;;8.00;99.90;;;;;;5085341;28;20464;-56
2021/12/17 09:32:31;;;;;;;41.58;16.58;;;8.10;99.90;;;;;;5083510;28;20108;-56
2021/12/17 09:34:59;;;;;;;38.28;15.77;;;8.20;99.90;;;;;;5065234;28;20135;-57
2021/12/17 09:37:25;;;;;;;38.80;15.85;;;8.10;99.90;;;;;;5076864;28;20139;-57
2021/12/17 09:39:51;;;;;;;44.05;17.20;;;10.10;99.90;;;;;;5083653;28;20039;-56
2021/12/17 09:42:16;;;;;;;44.53;16.55;;;8.30;99.90;;;;;;5082403;28;20044;-55
2021/12/17 09:44:42;;;;;;;40.67;16.15;;;8.10;99.90;;;;;;5074863;28;20043;-57
2021/12/17 09:47:08;;;;;;;43.40;16.13;;;8.20;99.90;;;;;;5077242;28;20082;-57
2021/12/17 09:49:34;;;;;;;39.30;14.63;;;8.30;99.90;;;;;;5070787;28;20131;-57
2021/12/17 09:52:00;;;;;;;30.98;14.18;;;8.10;99.90;;;;;;5083389;28;20060;-57
2021/12/17 09:54:27;;;;;;;31.88;13.95;;;8.30;99.90;;;;;;5066590;28;20098;-57
2021/12/17 09:56:53;;;;;;;24.40;11.48;;;8.40;99.90;;;;;;5077192;28;20659;-57
2021/12/17 09:59:19;;;;;;;27.10;12.38;;;8.40;99.90;;;;;;5073866;28;20123;-57
2021/12/17 10:01:45;;;;;;;30.85;12.85;;;8.30;99.90;;;;;;5066608;28;20068;-57
2021/12/17 10:04:17;;;;;;;32.95;13.75;;;8.80;99.90;;;;;;5076372;28;20067;-57
2021/12/17 10:06:45;;;;;;;37.08;14.15;;;8.30;99.90;;;;;;5065612;28;20041;-57
2021/12/17 10:09:11;;;;;;;25.55;12.32;;;8.30;99.90;;;;;;5075420;28;20044;-57
2021/12/17 10:11:37;;;;;;;22.50;10.77;;;8.50;99.90;;;;;;5072778;28;20460;-57
2021/12/17 10:14:16;;;;;;;30.30;12.90;;;10.70;99.90;;;;;;5063916;28;20489;-55
2021/12/17 10:16:42;;;;;;;33.63;13.85;;;8.40;99.90;;;;;;5067073;28;20102;-56
2021/12/17 10:19:08;;;;;;;29.00;12.35;;;8.50;99.90;;;;;;5067853;28;20066;-58
2021/12/17 10:21:38;;;;;;;26.73;12.23;;;9.80;99.90;;;;;;5071180;28;20129;-58
2021/12/17 10:24:04;;;;;;;29.27;13.15;;;9.70;99.90;;;;;;5072818;28;20047;-57
2021/12/17 10:26:41;;;;;;;34.03;13.90;;;8.50;99.90;;;;;;5071834;28;20131;-56
2021/12/17 10:29:07;;;;;;;35.67;13.52;;;8.50;99.90;;;;;;5073301;28;20055;-57
2021/12/17 10:31:37;;;;;;;24.80;11.40;;;8.50;99.90;;;;;;5068232;28;20029;-57
2021/12/17 10:34:04;;;;;;;25.00;11.88;;;9.10;99.90;;;;;;5067065;28;20483;-56
2021/12/17 10:36:35;;;;;;;23.08;10.50;;;8.60;99.90;;;;;;5073352;28;20645;-56
2021/12/17 10:39:32;;;;;;;20.90;10.50;;;9.30;99.90;;;;;;5080707;28;20028;-56
2021/12/17 10:41:58;;;;;;;26.65;11.35;;;9.70;99.90;;;;;;5073578;28;20043;-55
2021/12/17 10:44:27;;;;;;;23.00;11.98;;;8.60;99.90;;;;;;5081858;28;20044;-56
2021/12/17 10:47:09;;;;;;;28.75;13.88;;;8.60;99.90;;;;;;5078705;28;20043;-54
2021/12/17 10:49:35;;;;;;;24.58;12.27;;;8.70;99.90;;;;;;5068584;28;20123;-54
2021/12/17 10:52:06;;;;;;;21.08;11.98;;;8.60;99.90;;;;;;5082504;28;20155;-55
2021/12/17 10:54:33;;;;;;;22.88;11.82;;;8.50;99.90;;;;;;5066413;28;20056;-55
2021/12/17 10:56:59;;;;;;;23.35;11.13;;;9.40;99.90;;;;;;5083360;28;20074;-56
2021/12/17 10:59:28;;;;;;;21.67;11.80;;;8.70;99.90;;;;;;5060804;28;20043;-55
2021/12/17 11:02:00;;;;;;;24.67;11.52;;;8.70;99.90;;;;;;5083594;28;20118;-56
2021/12/17 11:04:34;;;;;;;26.02;11.45;;;8.70;99.90;;;;;;5076873;28;20040;-56
2021/12/17 11:07:04;;;;;;;26.40;11.98;;;8.70;99.90;;;;;;5069072;28;20085;-55
2021/12/17 11:09:53;;;;;;;22.15;10.55;;;8.70;99.90;;;;;;5079541;28;20043;-56
2021/12/17 11:12:35;;;;;;;17.65;8.90;;;8.80;99.90;;;;;;5073956;28;20086;-53
2021/12/17 11:15:07;;;;;;;17.48;10.18;;;8.90;99.90;;;;;;5074476;28;20607;-55
2021/12/17 11:17:33;;;;;;;19.27;10.20;;;8.80;99.90;;;;;;5080302;28;20125;-57
2021/12/17 11:20:06;;;;;;;20.77;9.60;;;8.80;99.90;;;;;;5068077;28;20069;-56
2021/12/17 11:22:32;;;;;;;18.60;9.18;;;8.80;99.90;;;;;;5072981;28;20465;-57
2021/12/17 11:25:00;;;;;;;18.98;10.00;;;8.80;99.90;;;;;;5075468;28;20032;-55
2021/12/17 11:27:27;;;;;;;19.77;9.52;;;8.90;99.90;;;;;;5072307;28;20115;-55
2021/12/17 11:29:54;;;;;;;16.42;8.20;;;8.90;99.90;;;;;;5074105;28;20473;-56
2021/12/17 11:32:21;;;;;;;19.55;9.40;;;9.00;99.90;;;;;;5075858;28;20059;-54
2021/12/17 11:34:47;;;;;;;18.98;9.60;;;8.90;99.90;;;;;;5064147;28;20075;-56
2021/12/17 11:37:14;;;;;;;16.55;9.60;;;11.00;99.90;;;;;;5076558;28;20664;-56
2021/12/17 11:39:48;;;;;;;13.45;8.73;;;8.90;99.90;;;;;;5075154;28;20508;-56
2021/12/17 11:42:37;;;;;;;16.63;9.25;;;8.90;99.90;;;;;;5061072;28;20122;-56
2021/12/17 11:45:23;;;;;;;17.85;8.50;;;9.00;99.90;;;;;;5077412;28;20136;-55
2021/12/17 11:47:50;;;;;;;15.00;8.20;;;8.80;99.90;;;;;;5079442;28;20093;-53
2021/12/17 11:50:18;;;;;;;13.52;8.40;;;8.90;99.90;;;;;;5067048;28;20520;-55
2021/12/17 11:52:46;;;;;;;17.45;10.68;;;8.80;99.90;;;;;;5068710;28;20076;-56
2021/12/17 11:55:34;;;;;;;16.00;9.57;;;9.70;99.90;;;;;;5064371;28;20048;-53
2021/12/17 11:58:04;;;;;;;17.73;10.15;;;8.80;99.90;;;;;;5082199;28;20059;-56
2021/12/17 12:00:52;;;;;;;14.40;9.38;;;9.10;99.90;;;;;;5074308;28;20046;-55
2021/12/17 12:03:22;;;;;;;15.27;10.00;;;8.90;99.90;;;;;;5074333;28;20067;-56
2021/12/17 12:05:53;;;;;;;13.10;9.65;;;10.10;99.90;;;;;;5078928;28;20089;-56
2021/12/17 12:08:30;;;;;;;16.50;8.75;;;9.00;99.90;;;;;;5063457;28;20554;-56
2021/12/17 12:11:06;;;;;;;11.70;8.10;;;9.00;99.90;;;;;;5072916;28;20041;-56
2021/12/17 12:13:44;;;;;;;16.40;8.80;;;9.00;99.90;;;;;;5068835;28;20547;-56
2021/12/17 12:16:15;;;;;;;12.02;8.30;;;9.00;99.90;;;;;;5072002;28;20040;-56
2021/12/17 12:18:42;;;;;;;15.10;8.52;;;10.00;99.90;;;;;;5080656;28;20045;-55
2021/12/17 12:21:11;;;;;;;14.93;8.45;;;9.00;99.90;;;;;;5066304;28;20108;-55
2021/12/17 12:23:40;;;;;;;11.75;8.02;;;9.10;99.90;;;;;;5072712;28;20614;-56
2021/12/17 12:26:11;;;;;;;13.63;8.60;;;9.10;99.90;;;;;;5075743;28;20052;-54
2021/12/17 12:29:10;;;;;;;14.00;8.68;;;9.10;99.90;;;;;;5075575;28;20773;-55
2021/12/17 12:31:37;;;;;;;11.63;8.13;;;8.90;99.90;;;;;;5005560;28;20457;-56
2021/12/17 12:34:17;;;;;;;11.40;7.30;;;9.00;99.90;;;;;;5013996;28;20045;-56
2021/12/17 12:36:47;;;;;;;10.88;6.72;;;9.80;99.90;;;;;;4985249;28;20050;-53
2021/12/17 12:39:25;;;;;;;10.98;7.13;;;8.90;99.90;;;;;;5013567;28;20050;-54
2021/12/17 12:42:12;;;;;;;10.77;7.18;;;9.00;99.90;;;;;;5002804;28;20096;-55
2021/12/17 12:44:50;;;;;;;11.68;7.45;;;8.90;99.90;;;;;;5000857;28;20050;-55
2021/12/17 12:47:24;;;;;;;9.07;6.72;;;8.90;99.90;;;;;;5020683;28;20045;-54
2021/12/17 12:49:54;;;;;;;10.07;6.80;;;9.00;99.90;;;;;;5003483;28;20045;-55
2021/12/17 12:52:32;;;;;;;8.55;6.00;;;8.90;99.90;;;;;;5001233;28;20073;-53
2021/12/17 12:55:14;;;;;;;10.20;6.90;;;9.90;99.90;;;;;;4986424;28;20058;-55
2021/12/17 12:57:42;;;;;;;10.85;7.45;;;8.80;99.90;;;;;;5016586;28;20596;-56
2021/12/17 13:00:22;;;;;;;9.55;7.28;;;8.90;99.90;;;;;;5002804;28;20125;-54
2021/12/17 13:02:58;;;;;;;11.77;6.97;;;9.10;99.90;;;;;;4994684;28;20041;-55
2021/12/17 13:05:25;;;;;;;12.70;7.93;;;8.90;99.90;;;;;;5009742;28;20116;-54
2021/12/17 13:07:59;;;;;;;15.13;11.27;;;8.90;99.90;;;;;;5038366;28;20106;-55
2021/12/17 13:10:39;;;;;;;21.60;14.52;;;8.90;99.90;;;;;;5075058;28;20140;-53
2021/12/17 13:13:27;;;;;;;9.93;7.13;;;10.90;99.90;;;;;;5078684;28;20047;-56
2021/12/17 13:16:12;;;;;;;9.15;6.90;;;8.90;99.90;;;;;;5082802;28;20127;-54
2021/12/17 13:24:14;;;;;;;10.75;6.45;;;8.80;99.90;;;;;;5072314;28;20052;-54
2021/12/17 13:27:05;;;;;;;9.93;6.35;;;8.90;99.90;;;;;;5073987;28;20048;-55
2021/12/17 13:29:37;;;;;;;9.00;7.10;;;8.80;99.90;;;;;;5085508;28;20062;-55
2021/12/17 13:32:05;;;;;;;;;;;10.20;99.90;;;;;;5084777;28;20120;-56
2021/12/17 13:34:36;;;;;;;11.98;7.43;;;8.90;99.90;;;;;;5087635;28;19939;-55
2021/12/17 13:37:30;;;;;;;11.05;8.25;;;10.10;99.90;;;;;;5077223;28;20486;-53
2021/12/17 13:39:57;;;;;;;9.60;7.40;;;10.40;99.90;;;;;;5001199;28;20053;-51
2021/12/17 13:42:30;;;;;;;10.20;7.43;;;9.40;99.90;;;;;;5000491;28;20046;-55
2021/12/17 13:44:57;;;;;;;8.80;6.82;;;8.90;99.90;;;;;;5000601;28;20056;-56
2021/12/17 13:47:27;;;;;;;10.80;7.28;;;8.80;99.90;;;;;;5000214;28;20038;-54
2021/12/17 13:50:04;;;;;;;10.25;6.82;;;8.80;99.90;;;;;;4998713;28;20087;-56
2021/12/17 13:52:32;;;;;;;11.60;7.60;;;8.90;99.90;;;;;;4982609;28;20466;-56
2021/12/17 13:55:00;;;;;;;9.20;7.22;;;8.90;99.90;;;;;;4983830;28;20038;-56
2021/12/17 13:57:29;;;;;;;13.65;8.02;;;8.90;99.90;;;;;;5000871;28;20124;-56
2021/12/17 14:00:10;;;;;;;11.10;7.43;;;9.80;99.90;;;;;;5001470;28;20381;-54
2021/12/17 14:02:39;;;;;;;11.98;7.32;;;9.00;99.90;;;;;;5001639;28;20045;-56
2021/12/17 14:05:08;;;;;;;10.82;6.40;;;8.80;99.90;;;;;;5000632;28;20038;-56
2021/12/17 14:07:36;;;;;;;11.52;7.43;;;8.80;99.90;;;;;;5000273;28;20072;-57
2021/12/17 14:10:07;;;;;;;10.68;7.47;;;8.90;99.90;;;;;;5000855;28;20046;-54
2021/12/17 14:12:37;;;;;;;10.20;7.88;;;8.80;99.90;;;;;;5001078;28;20153;-55
2021/12/17 14:15:26;;;;;;;9.52;6.85;;;9.00;99.90;;;;;;5000091;28;20526;-55
2021/12/17 14:18:04;;;;;;;10.45;6.93;;;8.90;99.90;;;;;;5078589;28;20121;-56
2021/12/17 14:20:40;;;;;;;9.65;7.07;;;10.90;99.90;;;;;;5062677;28;20718;-56
2021/12/17 14:23:26;;;;;;;8.68;6.03;;;8.70;99.90;;;;;;5068944;28;20043;-55
2021/12/17 14:26:01;;;;;;;10.10;6.75;;;8.80;99.90;;;;;;5081752;28;20563;-56
2021/12/17 14:28:30;;;;;;;9.52;6.78;;;8.90;99.90;;;;;;5069380;28;20129;-56
2021/12/17 14:31:04;;;;;;;8.30;5.45;;;8.80;99.90;;;;;;5063651;28;20044;-56
2021/12/17 14:33:54;;;;;;;10.88;6.22;;;8.90;99.90;;;;;;5079540;28;20043;-56
2021/12/17 14:36:25;;;;;;;9.95;5.88;;;8.80;99.90;;;;;;5063160;28;20040;-56
2021/12/17 14:39:05;;;;;;;8.68;6.63;;;8.80;99.90;;;;;;5072610;28;20052;-55
2021/12/17 14:41:59;;;;;;;11.30;5.65;;;8.80;99.90;;;;;;5076545;28;20444;-53
2021/12/17 14:46:57;;;;;;;9.23;6.55;;;8.80;99.90;;;;;;5073142;28;20044;-55
2021/12/17 15:01:10;;;;;;;9.70;6.43;;;8.70;99.90;;;;;;5067668;28;20046;-56
2021/12/17 15:03:42;;;;;;;10.52;6.50;;;8.70;99.90;;;;;;5066429;28;20037;-56
2021/12/17 15:06:13;;;;;;;10.65;6.35;;;9.70;99.90;;;;;;5074689;28;20135;-55
2021/12/17 15:08:40;;;;;;;11.20;6.85;;;8.70;99.90;;;;;;5074278;28;20044;-56
2021/12/17 15:11:24;;;;;;;8.52;6.10;;;9.40;99.90;;;;;;5070755;28;20032;-57
2021/12/17 15:13:50;;;;;;;10.50;6.60;;;8.70;99.90;;;;;;5060042;28;20063;-56
2021/12/17 15:16:16;;;;;;;10.10;6.60;;;9.20;99.90;;;;;;5069268;28;20048;-55
2021/12/17 15:18:43;;;;;;;8.88;6.20;;;10.90;99.90;;;;;;5065354;28;20032;-56
2021/12/17 15:21:09;;;;;;;12.15;7.80;;;8.60;99.90;;;;;;5072022;28;20044;-55
2021/12/17 15:23:35;;;;;;;9.65;6.95;;;8.70;99.90;;;;;;5078393;28;20036;-55
2021/12/17 15:26:02;;;;;;;11.50;6.07;;;8.60;99.90;;;;;;5077187;28;20043;-56
2021/12/17 15:28:30;;;;;;;11.18;6.65;;;8.70;99.90;;;;;;5073937;28;20050;-55
2021/12/17 15:31:00;;;;;;;10.77;7.50;;;8.70;99.90;;;;;;5075728;28;20028;-56
2021/12/17 15:33:26;;;;;;;9.63;6.88;;;8.60;99.90;;;;;;5065290;28;20046;-55
2021/12/17 15:35:52;;;;;;;11.30;7.57;;;8.60;99.90;;;;;;5074292;28;20048;-55
2021/12/17 15:38:19;;;;;;;10.02;7.32;;;8.70;99.90;;;;;;5062305;28;20524;-56
2021/12/17 15:40:47;;;;;;;11.65;6.60;;;10.00;99.90;;;;;;5069876;28;20036;-55
2021/12/17 15:43:15;;;;;;;11.43;7.57;;;8.60;99.90;;;;;;5070904;28;20078;-56
2021/12/17 15:45:44;;;;;;;11.60;8.23;;;8.60;99.90;;;;;;5064414;28;20048;-56
2021/12/17 15:48:12;;;;;;;12.98;7.28;;;8.50;99.90;;;;;;5072226;28;20047;-56
2021/12/17 15:50:38;;;;;;;14.10;8.95;;;8.70;99.90;;;;;;5075056;28;20151;-55
2021/12/17 15:53:04;;;;;;;14.00;7.65;;;8.50;99.90;;;;;;5068809;28;20453;-56
2021/12/17 15:55:30;;;;;;;16.77;9.07;;;8.50;99.90;;;;;;5078821;28;20089;-56
2021/12/17 15:57:57;;;;;;;16.00;9.43;;;8.70;99.90;;;;;;5060424;28;20888;-56
2021/12/17 16:00:33;;;;;;;13.77;8.40;;;8.70;99.90;;;;;;5072028;28;20047;-56